Time;durP1;ratioP1;P1;durP2;ratioP2;P2;SDS_P1;SDS_P2;PMS_P1;PMS_P2;Temp;Humidity;BMP_temperature;BMP_pressure;BME280_temperature;BME280_humidity;BME280_pressure;Samples;Min_cycle;Max_cycle;Signal;HPM_P1;HPM_P2
2024/03/13 00:00:10;;;;;;;2.78;1.50;;;11.50;73.40;;;;;;2303397;54;21418;-68
2024/03/13 00:02:43;;;;;;;2.90;1.27;;;11.50;73.30;;;;;;2559756;53;20998;-66
2024/03/13 00:05:12;;;;;;;3.05;1.50;;;11.50;73.30;;;;;;2336880;54;21755;-69
2024/03/13 00:07:38;;;;;;;2.78;1.10;;;11.50;73.40;;;;;;2586337;53;20925;-67
2024/03/13 00:10:06;;;;;;;2.80;1.27;;;11.50;73.40;;;;;;2339652;54;22142;-68
2024/03/13 00:12:34;;;;;;;2.78;1.40;;;11.50;73.50;;;;;;2340147;54;21513;-68
2024/03/13 00:15:05;;;;;;;3.53;1.35;;;11.50;73.50;;;;;;2340533;54;21469;-66
2024/03/13 00:17:32;;;;;;;2.92;1.15;;;11.50;73.50;;;;;;2340563;54;21541;-67
2024/03/13 00:19:59;;;;;;;3.90;1.67;;;11.50;73.60;;;;;;2340256;54;20933;-66
2024/03/13 00:22:25;;;;;;;3.90;1.10;;;11.40;73.60;;;;;;2587144;53;21708;-67
2024/03/13 00:24:52;;;;;;;2.58;1.10;;;11.50;73.70;;;;;;2340948;54;20940;-69
2024/03/13 00:27:20;;;;;;;2.30;1.12;;;11.40;73.60;;;;;;2340135;54;20994;-67
2024/03/13 00:29:47;;;;;;;2.95;1.12;;;11.50;73.70;;;;;;2574592;53;21598;-65
2024/03/13 00:32:17;;;;;;;3.17;1.20;;;11.50;73.70;;;;;;2324035;54;21005;-66
2024/03/13 00:34:46;;;;;;;2.70;1.25;;;11.50;73.70;;;;;;2328145;54;21517;-66
2024/03/13 00:37:15;;;;;;;3.55;1.23;;;11.50;73.70;;;;;;2543230;53;20949;-67
2024/03/13 00:39:42;;;;;;;2.95;1.20;;;11.50;73.70;;;;;;2334928;54;21102;-69
2024/03/13 00:42:11;;;;;;;3.17;1.33;;;11.50;73.80;;;;;;2322754;54;20981;-67
2024/03/13 00:44:41;;;;;;;2.75;1.33;;;11.50;73.80;;;;;;2586444;53;21311;-68
2024/03/13 00:47:14;;;;;;;4.22;1.70;;;11.50;73.70;;;;;;2554286;53;20987;-67
2024/03/13 00:49:42;;;;;;;3.22;1.60;;;11.50;73.80;;;;;;2320255;54;20948;-66
2024/03/13 00:52:08;;;;;;;3.03;1.73;;;11.50;73.80;;;;;;2585170;53;21506;-67
2024/03/13 00:54:35;;;;;;;3.45;1.62;;;11.50;73.80;;;;;;2586920;53;20941;-68
2024/03/13 00:57:02;;;;;;;2.75;1.50;;;11.50;73.80;;;;;;2586135;53;21964;-67
2024/03/13 00:59:29;;;;;;;3.05;1.50;;;11.50;73.80;;;;;;2554038;53;20932;-68
2024/03/13 01:01:56;;;;;;;3.55;1.80;;;11.50;73.80;;;;;;2571783;53;20962;-67
2024/03/13 01:04:26;;;;;;;3.45;1.50;;;11.50;73.80;;;;;;2325135;54;20968;-67
2024/03/13 01:06:52;;;;;;;3.15;1.58;;;11.50;73.70;;;;;;2586485;53;21426;-66
2024/03/13 01:09:19;;;;;;;2.78;1.37;;;11.50;73.80;;;;;;2340306;54;21004;-67
2024/03/13 01:11:48;;;;;;;2.67;1.30;;;11.50;73.80;;;;;;2341064;54;21040;-66
2024/03/13 01:14:19;;;;;;;3.62;1.67;;;11.50;73.90;;;;;;2585010;53;21415;-68
2024/03/13 01:16:48;;;;;;;3.10;1.40;;;11.50;73.90;;;;;;2340778;54;20964;-69
2024/03/13 01:19:14;;;;;;;2.90;1.30;;;11.50;73.90;;;;;;2339689;54;20961;-70
2024/03/13 01:21:41;;;;;;;5.07;1.52;;;11.50;73.80;;;;;;2340904;54;20940;-69
2024/03/13 01:24:08;;;;;;;3.30;1.55;;;11.50;73.80;;;;;;2586456;53;20949;-66
2024/03/13 01:26:34;;;;;;;3.22;1.48;;;11.50;73.90;;;;;;2337423;54;20948;-67
2024/03/13 01:29:02;;;;;;;2.87;1.35;;;11.50;73.90;;;;;;2581986;53;21229;-67
2024/03/13 01:31:28;;;;;;;2.83;1.40;;;11.50;73.80;;;;;;2586557;53;21001;-70
2024/03/13 01:33:55;;;;;;;3.45;1.52;;;11.60;74.00;;;;;;2340704;54;21288;-70
2024/03/13 01:37:55;;;;;;;2.47;1.37;;;11.50;73.80;;;;;;2339961;54;21028;-67
2024/03/13 01:55:06;;;;;;;3.12;1.25;;;11.60;74.20;;;;;;2558625;53;20990;-66
2024/03/13 01:57:56;;;;;;;2.22;1.15;;;11.60;74.20;;;;;;2339318;54;20979;-67
2024/03/13 02:03:09;;;;;;;2.55;1.12;;;11.50;74.20;;;;;;2586011;53;21684;-67
2024/03/13 02:05:38;;;;;;;3.83;1.20;;;11.60;74.30;;;;;;2587206;53;20940;-67
2024/03/13 02:08:05;;;;;;;2.62;1.02;;;11.60;74.30;;;;;;2339287;54;20949;-66
2024/03/13 02:10:31;;;;;;;2.47;1.20;;;11.60;74.40;;;;;;2587113;53;21467;-67
2024/03/13 02:13:40;;;;;;;3.72;1.10;;;11.60;74.40;;;;;;2586257;53;21000;-68
2024/03/13 02:16:07;;;;;;;3.42;1.37;;;11.60;73.90;;;;;;2308333;54;20968;-67
2024/03/13 02:18:34;;;;;;;3.85;1.05;;;11.70;74.50;;;;;;2308867;54;21011;-68
2024/03/13 02:21:01;;;;;;;2.55;1.20;;;11.70;74.50;;;;;;2547224;54;21228;-67
2024/03/13 02:23:28;;;;;;;2.10;1.00;;;11.70;74.40;;;;;;2547092;54;20959;-68
2024/03/13 02:25:55;;;;;;;2.28;1.08;;;11.70;74.40;;;;;;2547252;54;20935;-67
2024/03/13 02:29:22;;;;;;;2.90;1.27;;;11.70;74.40;;;;;;2308125;54;20986;-67
2024/03/13 02:32:16;;;;;;;2.70;1.35;;;11.70;73.90;;;;;;2309268;54;20920;-67
2024/03/13 02:34:44;;;;;;;2.40;0.93;;;11.70;74.10;;;;;;2531745;53;20957;-69
2024/03/13 02:37:11;;;;;;;3.10;1.48;;;11.70;74.40;;;;;;2335445;54;21011;-69
2024/03/13 02:39:37;;;;;;;2.60;1.12;;;11.70;74.40;;;;;;2309675;55;21461;-69
2024/03/13 02:42:04;;;;;;;2.20;1.00;;;11.70;74.40;;;;;;2543985;53;20987;-69
2024/03/13 02:44:33;;;;;;;2.47;1.15;;;11.70;75.10;;;;;;2333910;54;21237;-69
2024/03/13 02:46:59;;;;;;;2.22;0.95;;;11.80;74.50;;;;;;2566397;53;20971;-68
2024/03/13 02:49:25;;;;;;;2.70;1.17;;;11.80;74.50;;;;;;2316827;54;21063;-70
2024/03/13 02:51:52;;;;;;;2.28;1.02;;;11.80;74.50;;;;;;2580568;53;21506;-69
2024/03/13 02:54:19;;;;;;;2.10;1.02;;;11.80;74.50;;;;;;2542376;53;20963;-68
2024/03/13 02:56:46;;;;;;;2.90;1.50;;;11.80;74.50;;;;;;2314261;54;20933;-70
2024/03/13 02:59:12;;;;;;;2.62;1.10;;;11.80;74.50;;;;;;2579545;53;20949;-69
2024/03/13 03:01:39;;;;;;;3.40;1.50;;;11.80;74.50;;;;;;2580447;53;21312;-70
2024/03/13 03:04:05;;;;;;;2.50;1.15;;;11.80;74.50;;;;;;2335077;54;20989;-70
2024/03/13 03:06:31;;;;;;;1.80;0.80;;;11.80;74.50;;;;;;2335359;54;21403;-68
2024/03/13 03:08:59;;;;;;;2.75;1.08;;;11.80;74.50;;;;;;2335108;54;21364;-68
2024/03/13 03:11:26;;;;;;;2.20;1.05;;;11.80;74.60;;;;;;2548574;53;21581;-69
2024/03/13 03:13:52;;;;;;;2.10;0.88;;;11.80;74.60;;;;;;2333529;54;21005;-67
2024/03/13 03:16:19;;;;;;;2.72;1.17;;;11.80;74.60;;;;;;2545176;53;21331;-68
2024/03/13 03:18:46;;;;;;;2.33;1.00;;;11.80;74.60;;;;;;2335842;54;21463;-71
2024/03/13 03:21:13;;;;;;;2.72;1.10;;;11.80;74.70;;;;;;2580068;53;21686;-69
2024/03/13 03:23:39;;;;;;;2.72;1.20;;;11.80;74.70;;;;;;2580565;53;21892;-69
2024/03/13 03:26:06;;;;;;;2.12;0.95;;;11.90;74.90;;;;;;2335765;54;21402;-69
2024/03/13 03:28:35;;;;;;;2.50;1.00;;;11.80;74.80;;;;;;2335022;54;20945;-69
2024/03/13 03:31:04;;;;;;;2.62;1.00;;;11.80;74.80;;;;;;2543565;53;21014;-67
2024/03/13 03:33:31;;;;;;;2.45;1.00;;;11.80;74.90;;;;;;2579918;53;21358;-70
2024/03/13 03:35:59;;;;;;;1.83;0.80;;;11.80;74.90;;;;;;2580597;53;20929;-69
2024/03/13 03:38:28;;;;;;;1.85;0.80;;;11.90;75.00;;;;;;2579871;53;21055;-68
2024/03/13 03:40:54;;;;;;;3.10;1.00;;;11.90;75.00;;;;;;2581018;53;20972;-69
2024/03/13 03:43:21;;;;;;;2.25;1.08;;;11.90;75.00;;;;;;2579561;53;21331;-71
2024/03/13 03:45:49;;;;;;;1.55;0.70;;;11.90;75.10;;;;;;2580593;53;20992;-68
2024/03/13 03:48:15;;;;;;;1.73;0.73;;;11.90;75.10;;;;;;2579200;53;22116;-69
2024/03/13 03:50:43;;;;;;;2.25;0.90;;;11.90;75.10;;;;;;2580652;53;20929;-70
2024/03/13 03:53:09;;;;;;;2.17;0.80;;;11.90;75.10;;;;;;2335274;54;20917;-68
2024/03/13 03:55:36;;;;;;;2.17;0.90;;;11.90;75.10;;;;;;2335735;54;20981;-70
2024/03/13 03:58:07;;;;;;;2.22;1.08;;;11.90;75.20;;;;;;2580077;53;21276;-69
2024/03/13 04:00:35;;;;;;;2.05;0.90;;;12.00;75.20;;;;;;2334498;54;21339;-69
2024/03/13 04:03:01;;;;;;;2.08;0.80;;;12.00;75.30;;;;;;2334526;54;20948;-69
2024/03/13 04:05:28;;;;;;;2.03;0.80;;;12.00;75.40;;;;;;2335499;54;21000;-69
2024/03/13 04:07:55;;;;;;;2.55;1.10;;;12.00;75.40;;;;;;2336242;54;21024;-71
2024/03/13 04:10:21;;;;;;;2.05;0.95;;;12.00;75.30;;;;;;2334771;54;21824;-72
2024/03/13 04:12:49;;;;;;;2.28;0.88;;;12.00;75.40;;;;;;2335035;54;20937;-70
2024/03/13 04:15:16;;;;;;;2.55;0.93;;;12.10;75.40;;;;;;2334717;54;20985;-69
2024/03/13 04:17:43;;;;;;;2.97;1.08;;;12.10;75.50;;;;;;2334705;54;20945;-69
2024/03/13 04:20:18;;;;;;;2.62;1.02;;;12.10;75.50;;;;;;2333986;54;21006;-70
2024/03/13 04:22:45;;;;;;;3.25;1.02;;;12.10;75.30;;;;;;2542569;53;21009;-71
2024/03/13 04:25:13;;;;;;;1.90;0.80;;;12.10;75.40;;;;;;2546970;54;21071;-70
2024/03/13 04:27:39;;;;;;;1.95;0.77;;;12.10;75.40;;;;;;2546483;54;21296;-69
2024/03/13 04:30:06;;;;;;;2.50;0.88;;;12.20;75.50;;;;;;2546162;54;21287;-70
2024/03/13 04:32:32;;;;;;;2.87;0.70;;;12.20;75.50;;;;;;2546303;54;20948;-70
2024/03/13 04:34:59;;;;;;;2.83;1.05;;;12.20;75.50;;;;;;2547766;54;21002;-71
2024/03/13 04:37:25;;;;;;;2.17;0.80;;;12.30;75.60;;;;;;2547379;54;20968;-72
2024/03/13 04:39:52;;;;;;;1.50;0.70;;;12.20;75.50;;;;;;2303335;55;21030;-70
2024/03/13 04:42:18;;;;;;;1.27;0.57;;;12.20;75.40;;;;;;2307865;54;20940;-71
2024/03/13 04:44:44;;;;;;;2.03;0.75;;;12.20;75.40;;;;;;2309273;54;20988;-71
2024/03/13 04:47:11;;;;;;;1.37;0.60;;;12.20;75.40;;;;;;2547421;54;20943;-71
2024/03/13 04:49:37;;;;;;;1.33;0.60;;;12.30;75.40;;;;;;2307793;56;22042;-71
2024/03/13 04:52:04;;;;;;;2.00;0.75;;;12.30;75.40;;;;;;2547256;53;21520;-71
2024/03/13 04:54:31;;;;;;;1.77;0.70;;;12.30;75.50;;;;;;2511017;54;20982;-71
2024/03/13 04:57:00;;;;;;;1.35;0.70;;;12.30;75.50;;;;;;2301999;55;21014;-72
2024/03/13 04:59:26;;;;;;;3.62;0.80;;;12.30;75.50;;;;;;2528036;54;21032;-70
2024/03/13 05:01:55;;;;;;;1.98;0.50;;;12.30;75.40;;;;;;2547092;54;21679;-70
2024/03/13 05:04:22;;;;;;;1.42;0.60;;;12.30;75.40;;;;;;2547038;54;20934;-71
2024/03/13 05:06:50;;;;;;;1.08;0.50;;;12.40;75.50;;;;;;2308515;55;20950;-71
2024/03/13 05:09:16;;;;;;;2.15;0.70;;;12.40;75.60;;;;;;2311116;54;20980;-72
2024/03/13 05:11:45;;;;;;;1.90;0.60;;;12.40;75.60;;;;;;2301952;54;21079;-70
2024/03/13 05:14:12;;;;;;;1.23;0.45;;;12.40;75.60;;;;;;2308634;54;20959;-71
2024/03/13 05:16:41;;;;;;;1.40;0.50;;;12.40;75.60;;;;;;2547542;54;20974;-70
2024/03/13 05:19:08;;;;;;;1.42;0.52;;;12.40;75.60;;;;;;2308675;55;21341;-72
2024/03/13 05:21:37;;;;;;;1.67;0.60;;;12.40;75.60;;;;;;2547205;54;21042;-71
2024/03/13 05:24:05;;;;;;;1.30;0.57;;;12.40;75.60;;;;;;2309329;55;20971;-70
2024/03/13 05:26:33;;;;;;;1.35;0.60;;;12.50;75.80;;;;;;2546064;54;21003;-71
2024/03/13 05:29:02;;;;;;;2.80;1.20;;;12.50;75.80;;;;;;2307751;55;21476;-71
2024/03/13 05:31:29;;;;;;;2.17;1.02;;;12.50;75.80;;;;;;2308209;55;20955;-71
2024/03/13 05:33:55;;;;;;;2.80;0.80;;;12.50;75.70;;;;;;2547030;54;21027;-71
2024/03/13 05:36:22;;;;;;;1.95;1.00;;;12.50;75.70;;;;;;2547573;54;21015;-71
2024/03/13 05:38:53;;;;;;;2.45;1.15;;;12.50;75.70;;;;;;2308723;55;21018;-70
2024/03/13 05:41:22;;;;;;;2.97;1.50;;;12.60;75.70;;;;;;2547153;54;20996;-70
2024/03/13 05:43:49;;;;;;;2.85;1.40;;;12.50;75.70;;;;;;2547721;54;21026;-70
2024/03/13 05:46:15;;;;;;;2.05;0.88;;;12.50;75.80;;;;;;2308763;54;21011;-70
2024/03/13 05:48:46;;;;;;;2.55;0.95;;;12.60;75.90;;;;;;2307868;54;21023;-72
2024/03/13 05:51:14;;;;;;;1.98;0.90;;;12.50;75.80;;;;;;2546229;54;21315;-70
2024/03/13 05:53:40;;;;;;;2.17;0.90;;;12.60;76.00;;;;;;2546301;54;21003;-71
2024/03/13 05:56:06;;;;;;;2.47;0.90;;;12.60;76.00;;;;;;2308479;54;21449;-72
2024/03/13 05:58:33;;;;;;;1.73;0.70;;;12.60;76.00;;;;;;2547284;54;20984;-71
2024/03/13 06:01:01;;;;;;;2.17;0.73;;;12.60;76.00;;;;;;2308809;54;20943;-71
2024/03/13 06:03:29;;;;;;;1.62;0.70;;;12.60;75.90;;;;;;2547382;54;20952;-72
2024/03/13 06:05:56;;;;;;;2.90;1.30;;;12.70;76.00;;;;;;2548039;54;20971;-71
2024/03/13 06:08:27;;;;;;;3.28;1.40;;;12.70;76.00;;;;;;2340654;54;20965;-71
2024/03/13 06:10:53;;;;;;;3.08;1.20;;;12.70;75.90;;;;;;2341464;54;21068;-71
2024/03/13 06:13:20;;;;;;;2.45;1.05;;;12.60;75.80;;;;;;2339821;54;21150;-71
2024/03/13 06:15:46;;;;;;;3.50;1.42;;;12.60;75.70;;;;;;2340027;54;20956;-72
2024/03/13 06:18:13;;;;;;;3.45;2.05;;;12.70;75.80;;;;;;2320233;54;21251;-72
2024/03/13 06:20:39;;;;;;;3.92;2.28;;;12.70;75.80;;;;;;2580553;53;20961;-71
2024/03/13 06:23:06;;;;;;;5.60;3.70;;;12.70;75.70;;;;;;2585557;53;21443;-71
2024/03/13 06:25:39;;;;;;;5.47;2.60;;;12.70;75.80;;;;;;2585551;53;20917;-71
2024/03/13 06:30:51;;;;;;;3.08;1.48;;;12.70;76.50;;;;;;2585519;53;20980;-72
2024/03/13 06:33:18;;;;;;;1.87;0.95;;;12.70;75.70;;;;;;2586435;53;20953;-72
2024/03/13 06:35:44;;;;;;;2.67;1.00;;;12.70;75.80;;;;;;2586373;53;20956;-71
2024/03/13 06:38:11;;;;;;;1.98;0.80;;;12.70;75.90;;;;;;2340172;54;21004;-72
2024/03/13 06:40:37;;;;;;;1.73;0.88;;;12.70;76.00;;;;;;2340314;54;21043;-72
2024/03/13 06:43:04;;;;;;;1.58;0.73;;;12.70;76.00;;;;;;2340645;54;20992;-72
2024/03/13 06:45:33;;;;;;;2.83;1.40;;;12.80;76.10;;;;;;2586313;53;21339;-72
2024/03/13 06:48:01;;;;;;;2.28;1.27;;;12.80;76.10;;;;;;2342079;54;21857;-72
2024/03/13 06:50:27;;;;;;;2.55;1.30;;;12.80;76.00;;;;;;2581124;53;21015;-72
2024/03/13 06:52:54;;;;;;;2.37;1.10;;;12.80;76.00;;;;;;2341176;54;20949;-72
2024/03/13 06:55:22;;;;;;;2.17;1.00;;;12.80;76.00;;;;;;2586127;53;20961;-72
2024/03/13 06:57:49;;;;;;;2.40;0.77;;;12.80;76.10;;;;;;2317201;54;20978;-72
2024/03/13 07:00:16;;;;;;;2.12;1.00;;;12.80;76.10;;;;;;2581668;53;20941;-72
2024/03/13 07:02:44;;;;;;;3.22;1.60;;;12.80;76.20;;;;;;2339984;54;20940;-72
2024/03/13 07:05:12;;;;;;;3.10;1.37;;;12.90;76.30;;;;;;2586727;53;20933;-72
2024/03/13 07:07:40;;;;;;;2.92;1.40;;;12.90;76.30;;;;;;2586331;53;21013;-72
2024/03/13 07:10:10;;;;;;;3.10;1.52;;;12.90;76.30;;;;;;2340642;54;20960;-72
2024/03/13 07:12:37;;;;;;;2.72;1.23;;;12.90;76.30;;;;;;2586330;53;20944;-72
2024/03/13 07:15:09;;;;;;;2.72;1.12;;;13.00;76.40;;;;;;2331609;54;21011;-73
2024/03/13 07:17:37;;;;;;;2.37;0.93;;;13.00;76.40;;;;;;2327509;54;21046;-73
2024/03/13 07:20:13;;;;;;;1.60;0.68;;;13.00;76.30;;;;;;2340956;54;21370;-72
2024/03/13 07:22:40;;;;;;;2.28;1.00;;;13.00;76.40;;;;;;2340429;54;20969;-73
2024/03/13 07:25:07;;;;;;;1.85;0.82;;;13.00;76.20;;;;;;2338109;54;20982;-72
2024/03/13 07:27:34;;;;;;;2.30;0.88;;;13.00;76.10;;;;;;2546106;54;20989;-72
2024/03/13 07:30:06;;;;;;;2.22;0.77;;;13.00;76.10;;;;;;2326422;54;21017;-73
2024/03/13 07:32:35;;;;;;;;;;;13.00;76.10;;;;;;2344608;54;21040;-72
2024/03/13 07:35:03;;;;;;;2.08;0.70;;;13.10;75.40;;;;;;2340899;54;20079;-72
2024/03/13 07:37:30;;;;;;;1.33;0.60;;;13.10;76.00;;;;;;2563611;53;20938;-73
2024/03/13 07:39:56;;;;;;;2.30;0.75;;;13.10;76.10;;;;;;2575620;53;20958;-72
2024/03/13 07:42:25;;;;;;;2.55;0.60;;;13.10;76.30;;;;;;2586407;53;21008;-73
2024/03/13 07:44:54;;;;;;;0.95;0.50;;;13.10;76.40;;;;;;2586773;53;22564;-73
2024/03/13 07:47:21;;;;;;;2.03;0.50;;;13.10;76.50;;;;;;2586791;53;21242;-73
2024/03/13 07:49:47;;;;;;;2.00;0.80;;;13.20;76.70;;;;;;2586445;53;20929;-73
2024/03/13 07:52:14;;;;;;;0.95;0.50;;;13.20;76.70;;;;;;2586664;53;20949;-74
2024/03/13 07:54:43;;;;;;;1.87;0.60;;;13.20;76.70;;;;;;2554118;53;21530;-73
2024/03/13 07:57:14;;;;;;;1.23;0.60;;;13.30;76.70;;;;;;2586224;53;20932;-73
2024/03/13 07:59:45;;;;;;;1.42;0.65;;;13.30;76.70;;;;;;2340534;54;21362;-73
2024/03/13 08:02:11;;;;;;;2.22;0.90;;;13.30;76.70;;;;;;2552373;53;20935;-73
2024/03/13 08:04:40;;;;;;;1.80;0.70;;;13.30;76.80;;;;;;2340261;54;21016;-73
2024/03/13 08:07:08;;;;;;;2.05;0.80;;;13.40;76.80;;;;;;2585490;53;20952;-73
2024/03/13 08:09:53;;;;;;;1.73;0.70;;;13.30;76.80;;;;;;2586979;53;20985;-73
2024/03/13 08:12:37;;;;;;;1.65;0.60;;;13.40;76.90;;;;;;2306960;54;21050;-73
2024/03/13 08:15:24;;;;;;;2.30;0.70;;;13.50;77.00;;;;;;2307763;54;20971;-73
2024/03/13 08:18:14;;;;;;;1.70;0.60;;;13.50;77.00;;;;;;2309671;54;21252;-73
2024/03/13 08:20:59;;;;;;;1.92;0.60;;;13.50;77.00;;;;;;2547664;54;21052;-73
2024/03/13 08:23:44;;;;;;;2.30;0.95;;;13.50;76.90;;;;;;2547036;54;21003;-72
2024/03/13 08:26:28;;;;;;;2.90;1.40;;;13.50;77.00;;;;;;2547942;53;20979;-73
2024/03/13 08:29:15;;;;;;;2.35;1.02;;;13.50;76.90;;;;;;2308869;55;21850;-73
2024/03/13 08:32:05;;;;;;;2.33;1.20;;;13.60;77.10;;;;;;2514370;53;21702;-73
2024/03/13 08:34:50;;;;;;;2.60;1.33;;;13.60;77.10;;;;;;2308886;55;21250;-73
2024/03/13 08:37:35;;;;;;;2.40;1.05;;;13.60;77.10;;;;;;2547093;53;20948;-73
2024/03/13 08:40:19;;;;;;;2.20;1.20;;;13.70;77.10;;;;;;2307613;55;21046;-73
2024/03/13 08:43:04;;;;;;;2.55;0.90;;;13.70;77.00;;;;;;2521528;54;21537;-73
2024/03/13 08:45:48;;;;;;;1.77;0.90;;;13.70;76.90;;;;;;2309661;54;20951;-73
2024/03/13 08:48:33;;;;;;;1.35;0.70;;;13.70;76.80;;;;;;2548018;54;21034;-73
2024/03/13 08:51:17;;;;;;;1.95;0.62;;;13.70;76.80;;;;;;2308022;55;21035;-73
2024/03/13 08:54:01;;;;;;;2.10;0.70;;;13.80;76.90;;;;;;2547266;54;20952;-73
2024/03/13 08:56:46;;;;;;;1.27;0.60;;;13.80;76.90;;;;;;2308310;55;20967;-73
2024/03/13 08:59:31;;;;;;;2.12;0.45;;;13.80;76.70;;;;;;2511782;54;20994;-73
2024/03/13 09:02:16;;;;;;;2.03;0.80;;;13.80;76.80;;;;;;2308947;55;20957;-73
2024/03/13 09:05:03;;;;;;;2.28;0.80;;;13.80;76.80;;;;;;2547529;54;20980;-73
2024/03/13 09:07:47;;;;;;;1.67;0.60;;;13.80;76.70;;;;;;2308675;55;20972;-74
2024/03/13 09:10:16;;;;;;;2.10;0.80;;;13.80;76.70;;;;;;2309335;55;21030;-73
2024/03/13 09:12:45;;;;;;;1.92;0.80;;;13.90;77.50;;;;;;2546704;54;20941;-73
2024/03/13 09:15:13;;;;;;;1.77;0.80;;;13.90;76.80;;;;;;2547177;54;21003;-73
2024/03/13 09:17:40;;;;;;;1.55;0.68;;;13.90;76.70;;;;;;2546727;53;21083;-73
2024/03/13 09:20:13;;;;;;;1.23;0.57;;;13.90;76.50;;;;;;2306406;55;21602;-73
2024/03/13 09:22:41;;;;;;;1.55;0.75;;;13.90;76.50;;;;;;2509261;54;21212;-73
2024/03/13 09:25:13;;;;;;;3.62;1.75;;;13.90;76.40;;;;;;2546294;54;21595;-73
2024/03/13 09:27:40;;;;;;;4.70;2.10;;;13.90;77.00;;;;;;2546393;54;20940;-73
2024/03/13 09:30:08;;;;;;;3.90;1.83;;;13.90;76.20;;;;;;2546572;54;20956;-73
2024/03/13 09:32:37;;;;;;;2.70;1.10;;;13.90;76.30;;;;;;2547045;54;21025;-73
2024/03/13 09:35:18;;;;;;;2.83;1.00;;;13.90;76.40;;;;;;2313371;54;21015;-74
2024/03/13 09:37:44;;;;;;;2.35;0.98;;;13.90;76.20;;;;;;2586830;53;20956;-73
2024/03/13 09:40:16;;;;;;;2.10;0.85;;;13.90;76.40;;;;;;2340684;54;20921;-73
2024/03/13 09:42:44;;;;;;;1.65;0.70;;;14.00;76.60;;;;;;2579575;53;21238;-73
2024/03/13 09:45:14;;;;;;;1.37;0.60;;;14.00;76.60;;;;;;2532419;53;20960;-73
2024/03/13 09:47:41;;;;;;;1.67;0.68;;;14.00;76.60;;;;;;2340474;54;20945;-73
2024/03/13 09:50:11;;;;;;;1.65;0.60;;;14.00;76.70;;;;;;2586093;53;20941;-74
2024/03/13 09:52:37;;;;;;;1.23;0.62;;;14.00;76.70;;;;;;2586188;53;20973;-73
2024/03/13 09:55:05;;;;;;;1.00;0.50;;;14.00;76.70;;;;;;2553701;53;20974;-74
2024/03/13 09:57:33;;;;;;;1.65;0.75;;;14.10;76.80;;;;;;2586243;53;21030;-73
2024/03/13 10:00:01;;;;;;;1.40;0.60;;;14.10;76.90;;;;;;2586208;53;20976;-74
2024/03/13 10:02:33;;;;;;;1.08;0.47;;;14.10;76.90;;;;;;2586629;53;20940;-74
2024/03/13 10:04:59;;;;;;;0.90;0.40;;;14.10;77.00;;;;;;2585943;53;21024;-73
2024/03/13 10:07:28;;;;;;;1.05;0.52;;;14.10;76.90;;;;;;2585889;53;20960;-74
2024/03/13 10:09:56;;;;;;;2.72;1.10;;;14.20;76.80;;;;;;2585575;53;20960;-73
2024/03/13 10:12:22;;;;;;;2.12;0.80;;;14.20;76.80;;;;;;2340674;54;20953;-73
2024/03/13 10:14:50;;;;;;;2.45;1.08;;;14.20;76.80;;;;;;2340704;54;20940;-73
2024/03/13 10:17:18;;;;;;;3.60;1.10;;;14.20;76.90;;;;;;2308673;54;21275;-74
2024/03/13 10:19:46;;;;;;;2.30;0.90;;;14.20;76.70;;;;;;2546960;54;20960;-73
2024/03/13 10:22:14;;;;;;;2.30;0.90;;;14.30;76.80;;;;;;2546955;54;21051;-73
2024/03/13 10:24:42;;;;;;;2.53;1.00;;;14.30;76.80;;;;;;2547397;54;20975;-73
2024/03/13 10:27:09;;;;;;;2.85;1.08;;;14.30;77.50;;;;;;2308404;54;21011;-74
2024/03/13 10:29:36;;;;;;;2.60;1.10;;;14.30;76.90;;;;;;2546962;54;21063;-73
2024/03/13 10:32:04;;;;;;;5.22;1.58;;;14.30;76.80;;;;;;2547485;54;20978;-73
2024/03/13 10:34:32;;;;;;;4.32;2.08;;;14.40;76.90;;;;;;2309834;54;21921;-73
2024/03/13 10:36:59;;;;;;;3.25;1.75;;;14.40;76.90;;;;;;2308285;54;21055;-73
2024/03/13 10:39:27;;;;;;;3.53;1.67;;;14.40;76.90;;;;;;2310447;54;20955;-73
2024/03/13 10:41:54;;;;;;;3.33;1.70;;;14.40;76.80;;;;;;2301965;54;20976;-73
2024/03/13 10:44:22;;;;;;;2.65;1.30;;;14.40;76.80;;;;;;2547864;54;21014;-73
2024/03/13 10:46:49;;;;;;;2.90;1.20;;;14.30;76.80;;;;;;2547696;54;20971;-74
2024/03/13 10:49:16;;;;;;;2.75;1.10;;;14.50;77.10;;;;;;2547766;53;20983;-73
2024/03/13 10:51:43;;;;;;;5.28;2.00;;;14.50;77.10;;;;;;2545682;53;20948;-73
2024/03/13 10:54:10;;;;;;;6.62;2.45;;;14.50;77.10;;;;;;2307091;55;20959;-74
2024/03/13 10:56:38;;;;;;;4.60;2.10;;;14.50;77.00;;;;;;2545642;54;21015;-73
2024/03/13 10:59:07;;;;;;;2.83;1.50;;;14.60;77.10;;;;;;2543182;54;20980;-73
2024/03/13 11:01:34;;;;;;;4.47;1.90;;;14.50;77.10;;;;;;2545562;54;21031;-73
2024/03/13 11:04:00;;;;;;;3.53;1.50;;;14.60;77.20;;;;;;2526641;54;20972;-73
2024/03/13 11:06:32;;;;;;;2.83;1.50;;;14.60;77.20;;;;;;2538495;53;21042;-73
2024/03/13 11:09:00;;;;;;;2.70;1.12;;;14.70;77.30;;;;;;2546390;54;20940;-74
2024/03/13 11:11:26;;;;;;;2.85;1.50;;;14.70;77.30;;;;;;2553882;53;20936;-74
2024/03/13 11:13:56;;;;;;;3.30;1.40;;;14.70;77.30;;;;;;2340862;54;20985;-73
2024/03/13 11:16:23;;;;;;;3.15;1.30;;;14.80;77.50;;;;;;2309245;54;21330;-73
2024/03/13 11:18:55;;;;;;;2.58;0.95;;;14.80;77.60;;;;;;2547548;54;21023;-73
2024/03/13 11:21:24;;;;;;;2.80;1.10;;;14.80;77.70;;;;;;2308826;54;21265;-74
2024/03/13 11:23:58;;;;;;;2.58;1.17;;;14.90;77.90;;;;;;2547112;54;21050;-73
2024/03/13 11:26:24;;;;;;;2.65;1.02;;;14.90;78.00;;;;;;2510679;54;21010;-73
2024/03/13 11:28:54;;;;;;;2.42;1.05;;;15.00;78.10;;;;;;2307707;54;21973;-72
2024/03/13 11:31:26;;;;;;;2.00;0.93;;;15.00;78.20;;;;;;2544540;54;20986;-73
2024/03/13 11:33:52;;;;;;;1.90;0.87;;;15.10;79.10;;;;;;2304673;55;21761;-73
2024/03/13 11:36:19;;;;;;;3.67;1.58;;;15.20;78.40;;;;;;2513356;54;21469;-72
2024/03/13 11:38:46;;;;;;;3.40;1.60;;;15.30;78.40;;;;;;2546565;54;20959;-72
2024/03/13 11:41:16;;;;;;;3.60;1.65;;;15.30;78.30;;;;;;2547177;54;20975;-73
2024/03/13 11:43:43;;;;;;;2.90;1.33;;;15.30;78.30;;;;;;2546913;54;20972;-73
2024/03/13 11:46:12;;;;;;;2.58;1.20;;;15.40;78.40;;;;;;2527097;54;21758;-73
2024/03/13 11:48:38;;;;;;;2.80;1.27;;;15.40;78.40;;;;;;2301542;55;21327;-73
2024/03/13 11:51:08;;;;;;;2.40;1.00;;;15.50;78.40;;;;;;2308094;54;20999;-73
2024/03/13 11:53:35;;;;;;;2.85;1.10;;;15.60;78.20;;;;;;2548087;54;20964;-73
2024/03/13 11:56:09;;;;;;;2.05;1.00;;;15.60;78.20;;;;;;2532875;53;21801;-71
2024/03/13 11:58:36;;;;;;;3.90;1.02;;;15.70;78.00;;;;;;2518434;54;20954;-73
2024/03/13 12:01:02;;;;;;;2.72;1.08;;;15.70;78.10;;;;;;2544904;53;21180;-72
2024/03/13 12:03:39;;;;;;;6.05;1.00;;;15.80;77.90;;;;;;2317215;55;20953;-72
2024/03/13 12:09:37;;;;;;;3.17;1.05;;;15.80;77.70;;;;;;2586032;53;20920;-73
2024/03/13 12:12:05;;;;;;;1.87;0.90;;;15.90;76.70;;;;;;2586383;53;20981;-72
2024/03/13 12:14:32;;;;;;;2.30;1.00;;;16.00;77.60;;;;;;2587247;53;21429;-72
2024/03/13 12:17:01;;;;;;;2.62;1.20;;;16.00;77.50;;;;;;2553706;53;21012;-72
2024/03/13 12:19:28;;;;;;;2.28;0.90;;;16.00;77.40;;;;;;2340392;54;21036;-72
2024/03/13 12:21:54;;;;;;;2.40;1.15;;;16.00;77.40;;;;;;2586161;53;21041;-71
2024/03/13 12:24:21;;;;;;;2.05;1.00;;;16.00;77.20;;;;;;2587019;53;21330;-72
2024/03/13 12:26:51;;;;;;;2.03;1.02;;;16.00;77.00;;;;;;2586647;53;20969;-73
2024/03/13 12:29:17;;;;;;;2.03;1.05;;;16.10;76.90;;;;;;2585744;53;22115;-71
2024/03/13 12:31:44;;;;;;;2.10;0.93;;;16.10;77.00;;;;;;2586813;53;20945;-73
2024/03/13 12:34:10;;;;;;;3.20;1.25;;;16.10;76.90;;;;;;2569627;53;20934;-71
2024/03/13 12:36:43;;;;;;;2.28;1.02;;;16.10;77.10;;;;;;2571812;53;20980;-72
2024/03/13 12:39:10;;;;;;;;;;;16.10;77.10;;;;;;2589266;53;21009;-70
2024/03/13 12:41:36;;;;;;;3.62;1.40;;;16.20;76.30;;;;;;2587060;53;20118;-71
2024/03/13 12:44:06;;;;;;;2.45;1.10;;;16.20;77.10;;;;;;2340102;54;20937;-71
2024/03/13 12:46:32;;;;;;;2.42;1.23;;;16.20;77.00;;;;;;2309325;54;21014;-71
2024/03/13 12:49:00;;;;;;;2.50;1.20;;;16.20;77.10;;;;;;2547308;54;20924;-71
2024/03/13 12:51:30;;;;;;;2.25;1.00;;;16.20;77.20;;;;;;2309543;54;20968;-71
2024/03/13 12:54:06;;;;;;;2.22;0.98;;;16.30;77.30;;;;;;2310934;54;21495;-71
2024/03/13 12:56:33;;;;;;;2.37;1.05;;;16.30;77.20;;;;;;2539773;54;20940;-72
2024/03/13 12:59:00;;;;;;;2.62;1.20;;;16.30;77.40;;;;;;2313569;54;20982;-71
2024/03/13 13:01:28;;;;;;;2.85;1.10;;;16.30;77.20;;;;;;2546530;54;20995;-72
2024/03/13 13:03:55;;;;;;;3.05;1.00;;;16.40;77.10;;;;;;2547655;54;21031;-72
2024/03/13 13:06:22;;;;;;;3.22;1.05;;;16.30;77.00;;;;;;2308611;54;21439;-72
2024/03/13 13:08:49;;;;;;;2.20;1.02;;;16.40;77.10;;;;;;2545520;54;21066;-71
2024/03/13 13:11:17;;;;;;;5.62;1.25;;;16.40;77.00;;;;;;2540049;54;20956;-71
2024/03/13 13:13:44;;;;;;;2.45;1.10;;;16.30;77.00;;;;;;2308765;54;20959;-71
2024/03/13 13:16:12;;;;;;;2.35;1.40;;;16.40;77.10;;;;;;2544212;54;21031;-72
2024/03/13 13:18:44;;;;;;;2.65;1.17;;;16.40;77.20;;;;;;2302867;54;20963;-70
2024/03/13 13:21:11;;;;;;;2.40;0.95;;;16.40;77.00;;;;;;2308158;54;20948;-71
2024/03/13 13:23:37;;;;;;;1.92;0.90;;;16.50;77.40;;;;;;2308779;54;20954;-71